Skip Navigation LinksHome page > Weather > Current weather Skip Navigation Links

Current Weather

Chicago O'Hare Intl, Chicago

For information only: do not use for flight planning or navigation.
Latest weather
Observation time Sunday, October 13, 2019 5:51 PM CDT
Local time Sunday, October 13, 2019 6:04 PM CDT
Flight conditions Visual Meteorological Conditions
Winds
Wind direction West (270°)
Wind speed 15 mph
Wind gusting to 22 mph
Visibility 10 mi.
Sky condition
Ceiling 5,500 ft. broken clouds
Cloud layer broken clouds 5,500 ft.
Cloud layer broken clouds 14,000 ft.
Temperature 48°F
Dewpoint 32°F
Altimeter 29.86 in.Hg
Derived measurements
Relative humidity 54%
Wind chill 42°F
Density altitude 101 ft.
Sea-level pressure 29.87 in.Hg
Remarks
System requires maintenance.
Automated weather observing station with precipitation discriminator.
METAR KORD 132251Z 27013G19KT 10SM BKN055 BKN140 09/00 A2986 RMK AO2 SLP116 T00890000 $

Settings

Location code

InnerDrive.Weather 4.0.6770.0 Release CLR 4.0.30319.42000
Copyright ©2018 Inner Drive Technology. All rights reserved. Portions Copyright ©1986-2018 David Braverman.

Find weather

Site navigation


Skip Navigation Links

Place info

Page info

PayPal - The safer, easier way to pay online!

Return home.

Copyright ©2019 Inner Drive Technology. Purveyors of fine, hand-crafted computer software. Page printed 2019-10-13T23:04:51 UTC.